Magnet Cove, Arkansas
Current Conditions -  °F | °C
As of 11:53 AM on Saturday 25 Oct 2014 (Local Time) from KHOT Reporting Station
Clear Clear  
Wind Chill: 77°   Ceiling: Unl
Heat Index: 79°   Visibility: 10mi
Dew Point: 63°   Wind: 5mph
Humidity: 62%   Direction: NA
Pressure: 30.13"   Gusts: NA
Location:  34.3189°N, 92.8629°W
Report Text: KHOT 251653Z AUTO VRB04KT 10SM CLR 25/17 A3013 RMK AO2 SLP197 T02500172
Loading
Personal Weather Stations






























Interactive Weather Map
Tropical Storm Tracking
New forecast layout! Learn more

10-Day Weather Forecast

Advertisements
Track Severe Weather on mobile